createdAt,value
2022-12-17T00:02:35.238Z,88.18
2022-12-17T00:05:20.507Z,88.63
2022-12-17T00:08:13.655Z,80.28
2022-12-17T00:10:59.291Z,86.95
2022-12-17T00:13:44.729Z,88.25
2022-12-17T00:16:30.323Z,85.03
2022-12-17T00:19:15.475Z,87.63
2022-12-17T00:22:01.073Z,89.60
2022-12-17T00:24:46.547Z,80.90
2022-12-17T00:27:31.980Z,97.38
2022-12-17T00:30:17.463Z,98.72
2022-12-17T00:33:13.653Z,89.55
2022-12-17T00:35:59.266Z,97.45
2022-12-17T00:38:44.814Z,117.90
2022-12-17T00:41:30.317Z,119.40
2022-12-17T00:44:15.786Z,77.70
2022-12-17T00:47:01.194Z,88.25
2022-12-17T00:49:46.517Z,73.93
2022-12-17T00:52:31.959Z,82.93
2022-12-17T00:55:17.414Z,82.95
2022-12-17T00:58:03.418Z,111.60
2022-12-17T01:00:49.027Z,115.35
2022-12-17T01:03:34.878Z,88.80
2022-12-17T01:06:21.702Z,91.50
2022-12-17T01:09:07.338Z,85.95
2022-12-17T01:11:52.810Z,103.13
2022-12-17T01:14:43.275Z,91.03
2022-12-17T01:17:28.769Z,85.40
2022-12-17T01:20:14.171Z,114.03
2022-12-17T01:23:05.370Z,91.47
2022-12-17T01:25:50.487Z,94.85
2022-12-17T01:28:43.613Z,87.13
2022-12-17T01:31:34.725Z,102.43
2022-12-17T01:34:21.156Z,90.95
2022-12-17T01:37:06.545Z,91.28
2022-12-17T01:39:52.111Z,107.95
2022-12-17T01:42:37.523Z,166.63
2022-12-17T01:45:23.540Z,266.38
2022-12-17T01:48:14.269Z,104.82
2022-12-17T01:51:06.535Z,91.20
2022-12-17T01:54:06.344Z,85.95
2022-12-17T01:56:53.803Z,80.80
2022-12-17T01:59:51.338Z,70.82
2022-12-17T02:02:36.976Z,65.68
2022-12-17T02:05:22.331Z,66.47
2022-12-17T02:08:57.063Z,68.63
2022-12-17T02:14:56.598Z,67.07
2022-12-17T02:17:49.107Z,67.45
2022-12-17T02:21:14.699Z,69.30
2022-12-17T02:24:19.036Z,61.95
2022-12-17T02:27:08.199Z,67.45
2022-12-17T02:30:01.670Z,61.08
2022-12-17T02:32:48.682Z,66.60
2022-12-17T02:35:42.495Z,63.30
2022-12-17T02:38:38.744Z,63.00
2022-12-17T02:41:25.720Z,64.82
2022-12-17T02:44:13.319Z,58.42
2022-12-17T02:47:00.697Z,62.92
2022-12-17T02:49:46.211Z,61.38
2022-12-17T02:52:35.147Z,63.67
2022-12-17T02:55:21.453Z,63.20
2022-12-17T02:58:06.810Z,52.13
2022-12-17T03:00:52.034Z,63.50
2022-12-17T03:03:38.018Z,67.88
2022-12-17T03:06:23.375Z,66.20
2022-12-17T03:09:08.948Z,66.25
2022-12-17T03:11:54.442Z,71.85
2022-12-17T03:14:40.023Z,74.78
2022-12-17T03:17:25.359Z,67.05
2022-12-17T03:20:10.630Z,60.42
2022-12-17T03:22:56.069Z,63.58
2022-12-17T03:25:41.481Z,60.53
2022-12-17T03:28:29.288Z,62.13
2022-12-17T03:31:18.352Z,61.65
2022-12-17T03:34:04.197Z,62.22
2022-12-17T03:36:50.653Z,56.63
2022-12-17T03:39:36.121Z,74.18
2022-12-17T03:42:21.382Z,65.20
2022-12-17T03:45:06.881Z,58.75
2022-12-17T03:47:52.458Z,62.20
2022-12-17T03:50:37.842Z,56.53
2022-12-17T03:53:23.768Z,61.05
2022-12-17T03:56:08.982Z,58.17
2022-12-17T03:58:58.994Z,61.00
2022-12-17T04:01:44.671Z,60.25
2022-12-17T04:04:29.866Z,63.13
2022-12-17T04:07:16.140Z,70.18
2022-12-17T04:10:01.356Z,56.80
2022-12-17T04:12:46.719Z,59.63
2022-12-17T04:15:32.278Z,58.58
2022-12-17T04:18:31.349Z,59.90
2022-12-17T04:21:17.040Z,68.78
2022-12-17T04:24:02.402Z,73.75
2022-12-17T04:26:47.977Z,63.75
2022-12-17T04:29:33.293Z,76.78
2022-12-17T04:32:18.862Z,79.63
2022-12-17T04:35:04.304Z,76.18
2022-12-17T04:37:49.693Z,68.65
2022-12-17T04:40:35.583Z,80.35
2022-12-17T04:43:28.640Z,91.82
2022-12-17T04:46:14.292Z,85.22
2022-12-17T04:48:59.432Z,81.03
2022-12-17T04:51:44.991Z,66.80
2022-12-17T04:54:30.658Z,86.82
2022-12-17T04:57:16.130Z,83.35
2022-12-17T05:00:01.524Z,93.40
2022-12-17T05:02:47.104Z,80.53
2022-12-17T05:05:32.325Z,79.88
2022-12-17T05:08:17.751Z,91.00
2022-12-17T05:11:03.333Z,77.50
2022-12-17T05:13:48.591Z,72.00
2022-12-17T05:16:34.149Z,71.45
2022-12-17T05:19:19.512Z,61.03
2022-12-17T05:22:04.908Z,66.78
2022-12-17T05:24:50.416Z,64.65
2022-12-17T05:27:35.914Z,77.55
2022-12-17T05:30:21.437Z,73.55
2022-12-17T05:33:06.873Z,64.10
2022-12-17T05:35:52.279Z,63.28
2022-12-17T05:38:37.750Z,71.07
2022-12-17T05:41:23.361Z,69.88
2022-12-17T05:44:08.607Z,75.25
2022-12-17T05:46:54.193Z,76.40
2022-12-17T05:49:39.721Z,68.30
2022-12-17T05:52:25.204Z,76.18
2022-12-17T05:55:10.581Z,79.78
2022-12-17T05:57:56.753Z,75.47
2022-12-17T06:00:42.160Z,72.57
2022-12-17T06:03:44.392Z,64.57
2022-12-17T06:06:29.993Z,70.10
2022-12-17T06:09:15.463Z,73.35
2022-12-17T06:12:02.807Z,71.07
2022-12-17T06:14:48.566Z,66.70
2022-12-17T06:17:33.990Z,74.07
2022-12-17T06:20:19.446Z,71.95
2022-12-17T06:23:05.066Z,68.95
2022-12-17T06:25:50.347Z,67.72
2022-12-17T06:28:35.875Z,68.32
2022-12-17T06:31:21.469Z,66.95
2022-12-17T06:34:06.766Z,70.20
2022-12-17T06:36:52.714Z,62.20
2022-12-17T06:39:38.617Z,70.93
2022-12-17T06:42:24.731Z,97.05
2022-12-17T06:45:10.742Z,87.57
2022-12-17T06:47:56.674Z,141.90
2022-12-17T06:50:42.665Z,115.35
2022-12-17T06:53:29.337Z,90.32
2022-12-17T06:56:17.322Z,88.38
2022-12-17T06:59:02.768Z,82.13
2022-12-17T07:02:05.200Z,75.35
2022-12-17T07:04:50.406Z,95.93
2022-12-17T07:07:35.969Z,83.15
2022-12-17T07:10:21.412Z,76.10
2022-12-17T07:13:06.880Z,64.97
2022-12-17T07:15:52.406Z,76.32
2022-12-17T07:18:38.018Z,74.32
2022-12-17T07:21:23.301Z,82.88
2022-12-17T07:24:08.885Z,71.82
2022-12-17T07:26:54.148Z,71.00
2022-12-17T07:29:39.543Z,77.95
2022-12-17T07:32:25.004Z,68.18
2022-12-17T07:35:10.449Z,72.97
2022-12-17T07:37:55.963Z,74.65
2022-12-17T07:40:41.562Z,81.10
2022-12-17T07:43:33.694Z,76.18
2022-12-17T07:46:19.039Z,76.00
2022-12-17T07:49:04.862Z,81.00
2022-12-17T07:51:50.054Z,82.25
2022-12-17T07:54:35.648Z,86.13
2022-12-17T07:57:21.345Z,85.75
2022-12-17T08:00:06.892Z,94.93
2022-12-17T08:02:52.505Z,82.55
2022-12-17T08:05:38.090Z,85.47
2022-12-17T08:08:30.700Z,95.90
2022-12-17T08:11:16.278Z,91.38
2022-12-17T08:14:01.661Z,88.47
2022-12-17T08:16:47.316Z,88.65
2022-12-17T08:19:33.061Z,90.30
2022-12-17T08:22:18.536Z,97.00
2022-12-17T08:25:03.869Z,104.13
2022-12-17T08:27:49.350Z,84.50
2022-12-17T08:30:34.901Z,84.38
2022-12-17T08:33:24.330Z,84.43
2022-12-17T08:36:14.594Z,88.70
2022-12-17T08:39:00.225Z,100.93
2022-12-17T08:41:51.084Z,94.43
2022-12-17T08:44:39.572Z,96.22
2022-12-17T08:47:25.111Z,106.88
2022-12-17T08:50:12.120Z,99.85
2022-12-17T08:52:57.576Z,87.35
2022-12-17T08:55:43.180Z,100.03
2022-12-17T08:58:28.630Z,90.40
2022-12-17T09:01:18.005Z,96.82
2022-12-17T09:04:05.541Z,94.10
2022-12-17T09:06:51.116Z,98.43
2022-12-17T09:09:36.519Z,111.95
2022-12-17T09:12:22.234Z,87.88
2022-12-17T09:15:26.563Z,77.50
2022-12-17T09:18:11.996Z,86.45
2022-12-17T09:20:57.816Z,92.60
2022-12-17T09:23:42.916Z,73.72
2022-12-17T09:26:28.710Z,79.60
2022-12-17T09:29:14.059Z,81.65
2022-12-17T09:32:04.106Z,92.50
2022-12-17T09:34:49.633Z,74.47
2022-12-17T09:37:35.375Z,88.68
2022-12-17T09:40:21.582Z,75.38
2022-12-17T09:43:13.703Z,76.47
2022-12-17T09:46:07.977Z,76.90
2022-12-17T09:49:15.509Z,87.50
2022-12-17T09:52:00.959Z,70.97
2022-12-17T09:54:59.409Z,71.82
2022-12-17T09:57:50.690Z,73.43
2022-12-17T10:00:44.557Z,79.32
2022-12-17T10:03:42.613Z,90.30
2022-12-17T10:06:31.657Z,84.55
2022-12-17T10:09:25.338Z,86.13
2022-12-17T10:12:10.907Z,78.75
2022-12-17T10:14:56.439Z,92.60
2022-12-17T10:17:44.553Z,79.75
2022-12-17T10:20:57.960Z,83.05
2022-12-17T10:23:50.200Z,69.67
2022-12-17T10:26:40.964Z,73.57
2022-12-17T10:29:47.359Z,70.05
2022-12-17T10:32:33.247Z,66.30
2022-12-17T10:35:31.360Z,73.63
2022-12-17T10:38:19.554Z,73.97
2022-12-17T10:41:04.990Z,76.43
2022-12-17T10:43:53.207Z,70.18
2022-12-17T10:46:56.720Z,79.47
2022-12-17T10:49:43.690Z,66.38
2022-12-17T10:52:50.625Z,73.20
2022-12-17T10:55:54.797Z,68.15
2022-12-17T10:58:47.711Z,65.15
2022-12-17T11:01:44.581Z,55.67
2022-12-17T11:04:49.534Z,62.40
2022-12-17T11:07:52.122Z,67.32
2022-12-17T11:10:49.584Z,54.13
2022-12-17T11:14:03.329Z,61.65
2022-12-17T11:16:57.234Z,62.70
2022-12-17T11:19:51.909Z,54.40
2022-12-17T11:22:55.005Z,57.33
2022-12-17T11:25:47.836Z,49.47
2022-12-17T11:28:41.449Z,47.00
2022-12-17T11:31:51.563Z,44.20
2022-12-17T11:34:46.739Z,48.58
2022-12-17T11:37:32.125Z,43.88
2022-12-17T11:40:41.761Z,41.38
2022-12-17T11:43:32.915Z,46.35
2022-12-17T11:46:49.246Z,47.15
2022-12-17T11:49:37.333Z,39.72
2022-12-17T11:52:25.633Z,43.60
2022-12-17T11:55:24.779Z,41.78
2022-12-17T11:58:23.296Z,41.58
2022-12-17T12:01:23.311Z,36.08
2022-12-17T12:04:08.738Z,37.83
2022-12-17T12:07:06.271Z,38.55
2022-12-17T12:10:06.431Z,35.00
2022-12-17T12:12:57.540Z,33.42
2022-12-17T12:15:50.498Z,38.25
2022-12-17T12:18:52.791Z,29.40
2022-12-17T12:21:57.711Z,33.97
2022-12-17T12:24:51.822Z,33.38
2022-12-17T12:28:09.276Z,30.38
2022-12-17T12:31:08.123Z,31.80
2022-12-17T12:34:00.493Z,32.58
2022-12-17T12:36:46.963Z,30.63
2022-12-17T12:39:38.490Z,28.95
2022-12-17T12:42:39.591Z,32.10
2022-12-17T12:45:37.776Z,32.50
2022-12-17T12:48:48.213Z,30.20
2022-12-17T12:51:54.208Z,35.47
2022-12-17T12:54:47.932Z,26.45
2022-12-17T12:58:21.639Z,26.13
2022-12-17T13:01:07.198Z,27.58
2022-12-17T13:04:07.691Z,31.30
2022-12-17T13:06:50.892Z,34.58
2022-12-17T13:12:02.292Z,32.08
2022-12-17T13:14:49.999Z,33.15
2022-12-17T13:17:16.741Z,37.10
2022-12-17T13:19:56.793Z,32.13
2022-12-17T13:22:24.517Z,28.20
2022-12-17T13:25:15.816Z,27.48
2022-12-17T13:27:43.287Z,32.80
2022-12-17T13:30:21.889Z,33.88
2022-12-17T13:33:21.715Z,31.45
2022-12-17T13:36:17.955Z,28.30
2022-12-17T13:38:44.694Z,35.90
2022-12-17T13:41:18.173Z,33.50
2022-12-17T13:43:49.184Z,27.05
2022-12-17T13:46:19.520Z,31.75
2022-12-17T13:49:12.830Z,34.63
2022-12-17T13:51:39.636Z,31.08
2022-12-17T13:54:15.008Z,32.38
2022-12-17T13:56:41.783Z,27.30
2022-12-17T13:59:21.234Z,30.20
2022-12-17T14:01:53.526Z,40.25
2022-12-17T14:04:21.240Z,34.40
2022-12-17T14:06:48.482Z,32.13
2022-12-17T14:09:18.614Z,36.65
2022-12-17T14:12:04.264Z,34.78
2022-12-17T14:14:52.645Z,30.45
2022-12-17T14:17:27.761Z,40.13
2022-12-17T14:20:11.206Z,37.63
2022-12-17T14:22:46.289Z,43.10
2022-12-17T14:25:22.418Z,41.40
2022-12-17T14:28:00.567Z,34.08
2022-12-17T14:30:33.357Z,38.53
2022-12-17T14:33:00.527Z,38.30
2022-12-17T14:35:31.035Z,41.78
2022-12-17T14:37:58.104Z,40.55
2022-12-17T14:40:26.099Z,33.10
2022-12-17T14:42:58.398Z,43.83
2022-12-17T14:45:27.100Z,49.50
2022-12-17T14:47:55.532Z,43.05
2022-12-17T14:50:22.297Z,42.97
2022-12-17T14:52:53.129Z,47.35
2022-12-17T14:55:31.910Z,46.05
2022-12-17T14:58:17.824Z,45.15
2022-12-17T15:00:49.690Z,50.72
2022-12-17T15:03:25.872Z,56.38
2022-12-17T15:06:06.110Z,50.35
2022-12-17T15:08:39.882Z,59.72
2022-12-17T15:11:07.423Z,66.00
2022-12-17T15:13:34.229Z,60.97
2022-12-17T15:16:00.979Z,60.53
2022-12-17T15:18:27.755Z,56.15
2022-12-17T15:20:54.609Z,60.80
2022-12-17T15:23:22.927Z,61.78
2022-12-17T15:25:52.081Z,66.47
2022-12-17T15:28:20.458Z,66.15
2022-12-17T15:30:49.241Z,65.50
2022-12-17T15:33:16.633Z,68.05
2022-12-17T15:35:43.590Z,71.20
2022-12-17T15:38:11.734Z,63.70
2022-12-17T15:40:39.625Z,64.70
2022-12-17T15:43:12.298Z,64.32
2022-12-17T15:45:47.970Z,66.22
2022-12-17T15:48:20.305Z,66.13
2022-12-17T15:50:47.965Z,65.72
2022-12-17T15:53:14.981Z,65.97
2022-12-17T15:55:42.272Z,73.50
2022-12-17T15:58:11.453Z,63.33
2022-12-17T16:00:38.227Z,71.53
2022-12-17T16:03:05.188Z,79.47
2022-12-17T16:05:32.105Z,80.00
2022-12-17T16:08:02.239Z,73.55
2022-12-17T16:10:29.723Z,78.88
2022-12-17T16:12:56.552Z,72.05
2022-12-17T16:15:23.358Z,72.40
2022-12-17T16:17:50.207Z,81.18
2022-12-17T16:20:17.373Z,81.93
2022-12-17T16:22:44.454Z,85.38
2022-12-17T16:25:11.295Z,84.47
2022-12-17T16:27:38.305Z,83.28
2022-12-17T16:30:05.590Z,82.72
2022-12-17T16:32:36.553Z,80.00
2022-12-17T16:35:04.905Z,86.30
2022-12-17T16:37:32.261Z,92.80
2022-12-17T16:40:00.461Z,84.03
2022-12-17T16:42:27.817Z,88.10
2022-12-17T16:44:54.644Z,84.05
2022-12-17T16:47:21.420Z,83.78
2022-12-17T16:49:50.855Z,88.07
2022-12-17T16:52:17.661Z,83.00
2022-12-17T16:54:44.479Z,86.07
2022-12-17T16:57:11.247Z,88.68
2022-12-17T16:59:38.025Z,84.63
2022-12-17T17:02:04.913Z,90.68
2022-12-17T17:04:31.816Z,80.00
2022-12-17T17:06:58.796Z,88.78
2022-12-17T17:09:25.761Z,83.65
2022-12-17T17:11:58.868Z,78.55
2022-12-17T17:14:26.437Z,80.65
2022-12-17T17:16:53.352Z,85.80
2022-12-17T17:19:20.658Z,101.22
2022-12-17T17:21:52.590Z,93.53
2022-12-17T17:24:26.717Z,102.72
2022-12-17T17:26:54.464Z,88.75
2022-12-17T17:29:21.663Z,75.63
2022-12-17T17:34:35.166Z,97.72
2022-12-17T17:37:01.909Z,87.43
2022-12-17T17:39:33.010Z,97.20
2022-12-17T17:42:00.178Z,84.90
2022-12-17T17:44:26.972Z,85.43
2022-12-17T17:46:53.838Z,96.00
2022-12-17T17:49:20.809Z,93.97
2022-12-17T17:52:17.613Z,77.03
2022-12-17T17:54:34.560Z,93.95
2022-12-17T17:57:01.376Z,90.28
2022-12-17T17:59:33.387Z,92.13
2022-12-17T18:02:01.291Z,76.78
2022-12-17T18:04:28.628Z,81.10
2022-12-17T18:09:42.203Z,85.18
2022-12-17T18:12:27.456Z,91.72
2022-12-17T18:17:41.104Z,107.53
2022-12-17T18:20:09.729Z,96.10
2022-12-17T18:22:36.826Z,93.00
2022-12-17T18:25:03.831Z,83.85
2022-12-17T18:27:30.653Z,95.47
2022-12-17T18:29:57.394Z,85.65
2022-12-17T18:32:24.293Z,90.97
2022-12-17T18:34:51.172Z,100.32
2022-12-17T18:37:17.971Z,92.72
2022-12-17T18:39:44.759Z,84.38
2022-12-17T18:42:29.891Z,96.38
2022-12-17T18:44:56.614Z,93.47
2022-12-17T18:47:24.709Z,88.68
2022-12-17T18:49:51.577Z,87.95
2022-12-17T18:52:18.397Z,87.50
2022-12-17T18:54:45.446Z,90.20
2022-12-17T18:57:12.283Z,78.95
2022-12-17T18:59:41.130Z,75.88
2022-12-17T19:02:15.304Z,76.85
2022-12-17T19:04:42.453Z,77.82
2022-12-17T19:07:09.400Z,82.38
2022-12-17T19:09:36.798Z,80.43
2022-12-17T19:12:05.872Z,86.88
2022-12-17T19:14:33.434Z,83.07
2022-12-17T19:17:00.650Z,82.65
2022-12-17T19:19:27.740Z,80.75
2022-12-17T19:21:55.323Z,76.15
2022-12-17T19:24:22.899Z,78.63
2022-12-17T19:26:49.909Z,85.78
2022-12-17T19:29:18.237Z,84.47
2022-12-17T19:31:45.940Z,87.22
2022-12-17T19:34:14.876Z,99.85
2022-12-17T19:36:43.094Z,114.93
2022-12-17T19:39:13.253Z,95.35
2022-12-17T19:41:40.277Z,95.45
2022-12-17T19:44:11.657Z,88.78
2022-12-17T19:46:38.711Z,93.38
2022-12-17T19:49:05.844Z,87.10
2022-12-17T19:51:33.386Z,87.82
2022-12-17T19:54:07.777Z,97.85
2022-12-17T19:56:35.979Z,92.75
2022-12-17T19:59:07.473Z,91.28
2022-12-17T20:01:39.653Z,94.07
2022-12-17T20:04:06.643Z,87.18
2022-12-17T20:06:35.245Z,86.78
2022-12-17T20:09:04.859Z,85.90
2022-12-17T20:11:35.050Z,95.07
2022-12-17T20:14:04.659Z,97.55
2022-12-17T20:16:34.598Z,106.13
2022-12-17T20:19:03.006Z,100.40
2022-12-17T20:21:30.001Z,91.60
2022-12-17T20:23:56.864Z,87.90
2022-12-17T20:26:24.081Z,84.20
2022-12-17T20:28:50.893Z,88.00
2022-12-17T20:31:18.085Z,93.30
2022-12-17T20:33:44.962Z,94.43
2022-12-17T20:36:15.034Z,97.18
2022-12-17T20:38:43.371Z,89.35
2022-12-17T20:41:22.036Z,77.60
2022-12-17T20:43:49.650Z,94.85
2022-12-17T20:46:18.623Z,84.88
2022-12-17T20:48:46.122Z,83.93
2022-12-17T20:51:18.896Z,88.53
2022-12-17T20:53:47.386Z,77.57
2022-12-17T20:56:16.523Z,95.13
2022-12-17T20:58:44.281Z,94.15
2022-12-17T21:01:29.869Z,85.93
2022-12-17T21:03:57.758Z,94.25
2022-12-17T21:06:27.668Z,91.65
2022-12-17T21:08:56.035Z,99.60
2022-12-17T21:11:32.789Z,101.65
2022-12-17T21:14:02.297Z,94.43
2022-12-17T21:16:31.627Z,85.93
2022-12-17T21:18:59.799Z,91.85
2022-12-17T21:21:29.000Z,92.60
2022-12-17T21:23:56.651Z,88.82
2022-12-17T21:26:29.616Z,113.85
2022-12-17T21:28:57.599Z,101.40
2022-12-17T21:31:40.728Z,77.88
2022-12-17T21:34:12.643Z,80.88
2022-12-17T21:36:39.639Z,79.40
2022-12-17T21:39:09.326Z,83.40
2022-12-17T21:41:38.919Z,106.05
2022-12-17T21:44:11.777Z,115.95
2022-12-17T21:46:39.491Z,92.13
2022-12-17T21:49:06.311Z,83.40
2022-12-17T21:51:33.442Z,92.05
2022-12-17T21:54:09.044Z,82.80
2022-12-17T21:56:36.921Z,79.75
2022-12-17T21:59:08.609Z,76.13
2022-12-17T22:01:35.524Z,80.93
2022-12-17T22:04:04.344Z,76.63
2022-12-17T22:06:38.771Z,83.25
2022-12-17T22:09:21.769Z,79.68
2022-12-17T22:12:20.261Z,87.97
2022-12-17T22:14:47.565Z,86.43
2022-12-17T22:17:14.415Z,76.00
2022-12-17T22:19:41.352Z,86.95
2022-12-17T22:22:08.165Z,72.97
2022-12-17T22:24:36.686Z,87.65
2022-12-17T22:27:06.862Z,84.38
2022-12-17T22:29:54.979Z,89.15
2022-12-17T22:32:40.224Z,84.32
2022-12-17T22:36:18.988Z,68.72
2022-12-17T22:40:52.855Z,73.13
2022-12-17T22:44:29.955Z,77.00
2022-12-17T22:44:43.343Z,83.60
2022-12-17T22:46:19.571Z,89.03
2022-12-17T22:48:47.521Z,72.38
2022-12-17T22:51:17.303Z,81.18
2022-12-17T22:53:51.977Z,68.22
2022-12-17T22:56:31.330Z,77.53
2022-12-17T22:59:07.260Z,88.88
2022-12-17T23:01:34.758Z,80.15
2022-12-17T23:04:02.859Z,76.75
2022-12-17T23:06:29.893Z,99.40
2022-12-17T23:08:56.776Z,81.75
2022-12-17T23:11:25.735Z,79.45
2022-12-17T23:13:54.264Z,85.82
2022-12-17T23:16:21.558Z,93.90
2022-12-17T23:18:49.905Z,78.93
2022-12-17T23:21:20.263Z,80.28
2022-12-17T23:23:47.275Z,72.47
2022-12-17T23:26:23.420Z,72.57
2022-12-17T23:28:58.531Z,74.15
2022-12-17T23:31:27.638Z,83.15
2022-12-17T23:33:55.155Z,76.15
2022-12-17T23:36:23.921Z,77.10
2022-12-17T23:38:51.030Z,78.93
2022-12-17T23:41:21.029Z,80.55
2022-12-17T23:43:48.879Z,70.68
2022-12-17T23:46:17.065Z,87.18
2022-12-17T23:48:45.952Z,71.28
2022-12-17T23:51:14.269Z,71.20
2022-12-17T23:53:42.002Z,71.90
2022-12-17T23:56:17.258Z,79.88
2022-12-17T23:58:45.817Z,73.65
